Time;durP1;ratioP1;P1;durP2;ratioP2;P2;SDS_P1;SDS_P2;PMS_P1;PMS_P2;Temp;Humidity;BMP_temperature;BMP_pressure;BME280_temperature;BME280_humidity;BME280_pressure;Samples;Min_cycle;Max_cycle;Signal;HPM_P1;HPM_P2
2022/07/11 00:01:42;;;;;;;;;;;;;;;13.93;51.37;96245.75;5043492;28;20021;-64
2022/07/11 00:04:07;;;;;;;;;;;;;;;13.87;52.00;96237.59;5043218;28;20980;-64
2022/07/11 00:06:32;;;;;;;;;;;;;;;14.23;51.28;96242.22;5043011;28;20616;-63
2022/07/11 00:08:57;;;;;;;;;;;;;;;14.43;50.26;96241.66;5043827;28;19998;-64
2022/07/11 00:11:23;;;;;;;;;;;;;;;14.64;49.90;96238.19;5042920;28;20077;-63
2022/07/11 00:13:48;;;;;;;;;;;;;;;14.81;49.22;96243.34;5041132;28;19970;-64
2022/07/11 00:16:13;;;;;;;;;;;;;;;14.66;49.60;96240.69;5043641;28;20503;-63
2022/07/11 00:18:39;;;;;;;;;;;;;;;14.79;49.32;96237.34;5042724;28;20369;-63
2022/07/11 00:21:04;;;;;;;;;;;;;;;14.82;49.47;96236.97;5043402;28;19988;-63
2022/07/11 00:23:29;;;;;;;;;;;;;;;14.85;49.17;96229.38;5040399;28;20364;-64
2022/07/11 00:25:54;;;;;;;;;;;;;;;14.90;49.00;96225.28;5043384;28;20249;-64
2022/07/11 00:28:19;;;;;;;;;;;;;;;14.82;49.15;96234.31;5040904;28;20032;-64
2022/07/11 00:30:45;;;;;;;;;;;;;;;14.60;49.82;96239.59;5042095;28;19977;-63
2022/07/11 00:33:10;;;;;;;;;;;;;;;14.26;50.80;96236.50;5042470;28;20398;-64
2022/07/11 00:35:35;;;;;;;;;;;;;;;14.57;49.52;96232.75;5042702;28;20021;-63
2022/07/11 00:38:01;;;;;;;;;;;;;;;14.84;49.31;96229.56;5042798;28;19972;-64
2022/07/11 00:40:26;;;;;;;;;;;;;;;14.69;49.64;96227.72;5040797;28;19991;-63
2022/07/11 00:42:51;;;;;;;;;;;;;;;14.31;50.53;96231.41;5041956;28;20007;-63
2022/07/11 00:45:16;;;;;;;;;;;;;;;14.27;50.59;96223.94;5042679;28;20016;-63
2022/07/11 00:47:42;;;;;;;;;;;;;;;13.92;51.35;96225.34;5042924;28;19996;-63
2022/07/11 00:50:07;;;;;;;;;;;;;;;14.21;50.93;96229.03;5042692;28;19966;-64
2022/07/11 00:52:32;;;;;;;;;;;;;;;14.42;50.52;96227.41;5042381;28;20026;-64
2022/07/11 00:54:58;;;;;;;;;;;;;;;14.68;49.79;96219.88;5040996;28;19992;-64
2022/07/11 00:57:23;;;;;;;;;;;;;;;14.86;49.31;96216.81;5041857;28;20058;-64
2022/07/11 00:59:48;;;;;;;;;;;;;;;15.06;48.76;96218.88;5042263;28;20042;-63
2022/07/11 01:02:13;;;;;;;;;;;;;;;15.14;48.48;96213.38;5042210;28;20436;-64
2022/07/11 01:04:39;;;;;;;;;;;;;;;15.07;48.78;96212.47;5042014;28;20546;-64
2022/07/11 01:07:04;;;;;;;;;;;;;;;15.05;48.35;96209.97;5042328;28;20202;-64
2022/07/11 01:09:29;;;;;;;;;;;;;;;15.03;48.50;96212.00;5042234;28;19975;-63
2022/07/11 01:11:55;;;;;;;;;;;;;;;15.15;48.26;96206.13;5041932;28;20033;-64
2022/07/11 01:14:20;;;;;;;;;;;;;;;15.10;48.27;96210.22;5040685;28;19968;-63
2022/07/11 01:16:45;;;;;;;;;;;;;;;14.99;48.62;96205.38;5043927;28;20294;-64
2022/07/11 01:19:10;;;;;;;;;;;;;;;14.78;48.92;96206.19;5042056;28;20131;-63
2022/07/11 01:21:38;;;;;;;;;;;;;;;14.85;48.71;96201.72;5042214;28;19988;-63
2022/07/11 01:24:04;;;;;;;;;;;;;;;14.92;48.71;96196.47;5041085;28;19987;-64
2022/07/11 01:26:29;;;;;;;;;;;;;;;14.98;48.09;96196.50;5042010;28;19977;-64
2022/07/11 01:28:59;;;;;;;;;;;;;;;15.07;47.41;96199.91;5040122;28;19992;-63
2022/07/11 01:31:25;;;;;;;;;;;;;;;15.13;48.23;96192.09;5041052;28;19994;-64
2022/07/11 01:33:50;;;;;;;;;;;;;;;15.19;48.01;96196.66;5041798;28;19971;-64
2022/07/11 01:36:15;;;;;;;;;;;;;;;15.17;47.43;96194.22;5041686;28;20469;-64
2022/07/11 01:38:41;;;;;;;;;;;;;;;15.13;47.43;96190.22;5041660;28;20332;-63
2022/07/11 01:41:06;;;;;;;;;;;;;;;15.15;47.31;96190.03;5042110;28;19967;-64
2022/07/11 01:43:32;;;;;;;;;;;;;;;15.12;48.01;96190.44;5040060;28;19988;-63
2022/07/11 01:45:57;;;;;;;;;;;;;;;14.98;48.34;96183.09;5042092;28;19988;-63
2022/07/11 01:48:22;;;;;;;;;;;;;;;15.05;47.55;96182.31;5040978;28;20269;-63
2022/07/11 01:50:48;;;;;;;;;;;;;;;15.16;46.78;96189.84;5041657;28;20063;-63
2022/07/11 01:53:13;;;;;;;;;;;;;;;15.22;47.33;96178.34;5042823;28;20511;-64
2022/07/11 01:55:38;;;;;;;;;;;;;;;15.17;46.57;96172.75;5044634;28;20411;-63
2022/07/11 01:58:03;;;;;;;;;;;;;;;15.30;47.27;96176.56;5045483;28;20094;-64
2022/07/11 02:00:29;;;;;;;;;;;;;;;15.31;47.11;96178.22;5045584;28;20100;-63
2022/07/11 02:02:54;;;;;;;;;;;;;;;15.29;46.64;96175.72;5045917;28;20001;-64
2022/07/11 02:05:19;;;;;;;;;;;;;;;15.27;46.46;96179.63;5044136;28;20029;-64
2022/07/11 02:10:29;;;;;;;;;;;;;;;15.15;45.60;96184.66;5046010;28;19982;-64
2022/07/11 02:12:58;;;;;;;;;;;;;;;15.16;46.48;96170.25;5045435;28;19989;-63
2022/07/11 02:15:23;;;;;;;;;;;;;;;15.15;44.86;96172.09;5044191;28;19996;-64
2022/07/11 02:17:49;;;;;;;;;;;;;;;15.21;44.94;96168.66;5045937;28;20447;-63
2022/07/11 02:20:14;;;;;;;;;;;;;;;15.24;45.36;96167.44;5044839;28;20081;-63
2022/07/11 02:22:39;;;;;;;;;;;;;;;15.33;46.00;96165.44;5043089;28;20035;-63
2022/07/11 02:25:05;;;;;;;;;;;;;;;15.26;46.58;96172.59;5045037;28;20574;-64
2022/07/11 02:27:30;;;;;;;;;;;;;;;15.13;46.46;96168.78;5045105;28;20427;-63
2022/07/11 02:29:55;;;;;;;;;;;;;;;15.10;46.01;96178.03;5045217;28;20028;-63
2022/07/11 02:32:20;;;;;;;;;;;;;;;15.16;46.18;96165.72;5044971;28;20085;-63
2022/07/11 02:34:45;;;;;;;;;;;;;;;15.21;46.64;96175.88;5045104;28;20021;-63
2022/07/11 02:37:11;;;;;;;;;;;;;;;15.21;46.37;96165.97;5044696;28;20141;-64
2022/07/11 02:39:36;;;;;;;;;;;;;;;15.24;45.69;96172.81;5044848;28;20046;-64
2022/07/11 02:42:01;;;;;;;;;;;;;;;15.26;45.47;96176.09;5045085;28;19971;-63
2022/07/11 02:44:26;;;;;;;;;;;;;;;15.30;45.42;96174.69;5045438;28;19997;-63
2022/07/11 02:46:52;;;;;;;;;;;;;;;15.32;46.22;96175.34;5044373;28;20380;-63
2022/07/11 02:49:17;;;;;;;;;;;;;;;15.26;45.50;96168.06;5045270;28;20088;-63
2022/07/11 02:51:42;;;;;;;;;;;;;;;15.17;46.93;96171.91;5044395;28;20007;-63
2022/07/11 02:54:07;;;;;;;;;;;;;;;15.18;46.49;96174.41;5045051;28;20177;-63
2022/07/11 02:56:33;;;;;;;;;;;;;;;15.24;45.41;96173.59;5044198;28;20019;-67
2022/07/11 02:58:58;;;;;;;;;;;;;;;15.35;45.77;96174.13;5044668;28;19993;-63
2022/07/11 03:01:23;;;;;;;;;;;;;;;15.32;46.16;96177.19;5044679;28;19981;-63
2022/07/11 03:03:48;;;;;;;;;;;;;;;15.36;45.19;96175.75;5043556;28;20465;-63
2022/07/11 03:06:14;;;;;;;;;;;;;;;15.38;45.03;96179.09;5044255;28;20036;-64
2022/07/11 03:08:39;;;;;;;;;;;;;;;15.38;45.88;96179.09;5044732;28;20025;-63
2022/07/11 03:11:05;;;;;;;;;;;;;;;15.28;45.82;96183.97;5043840;28;20024;-63
2022/07/11 03:13:30;;;;;;;;;;;;;;;15.30;46.88;96179.25;5044516;28;19973;-63
2022/07/11 03:15:56;;;;;;;;;;;;;;;15.28;46.69;96179.44;5043928;28;19999;-63
2022/07/11 03:18:21;;;;;;;;;;;;;;;15.21;46.33;96182.06;5044605;28;20199;-63
2022/07/11 03:20:46;;;;;;;;;;;;;;;15.21;47.07;96174.03;5043738;28;20662;-63
2022/07/11 03:23:11;;;;;;;;;;;;;;;14.85;47.67;96183.81;5043087;28;20034;-63
2022/07/11 03:25:36;;;;;;;;;;;;;;;14.78;47.95;96182.06;5044284;28;19989;-63
2022/07/11 03:28:02;;;;;;;;;;;;;;;14.94;47.66;96181.84;5043592;28;19988;-66
2022/07/11 03:30:27;;;;;;;;;;;;;;;14.88;47.59;96184.44;5044188;28;19970;-64
2022/07/11 03:32:52;;;;;;;;;;;;;;;14.89;47.95;96189.59;5043791;28;20423;-63
2022/07/11 03:38:01;;;;;;;;;;;;;;;14.03;49.75;96186.59;5042961;28;19983;-63
2022/07/11 03:40:27;;;;;;;;;;;;;;;14.27;49.26;96183.75;5043649;28;19992;-63
2022/07/11 03:42:52;;;;;;;;;;;;;;;14.31;48.82;96188.56;5042512;28;20095;-63
2022/07/11 03:45:18;;;;;;;;;;;;;;;14.15;49.26;96186.94;5043847;28;20155;-63
2022/07/11 03:47:43;;;;;;;;;;;;;;;14.22;48.15;96187.03;5042862;28;19996;-63
2022/07/11 03:50:08;;;;;;;;;;;;;;;14.23;49.29;96183.31;5043687;28;20473;-63
2022/07/11 03:52:34;;;;;;;;;;;;;;;14.09;49.44;96182.31;5043861;28;20357;-63
2022/07/11 03:54:59;;;;;;;;;;;;;;;14.17;50.16;96189.41;5043230;28;20477;-63
2022/07/11 03:57:24;;;;;;;;;;;;;;;14.01;49.25;96187.78;5043657;28;20333;-63
2022/07/11 03:59:49;;;;;;;;;;;;;;;13.92;50.75;96185.22;5042575;28;19996;-63
2022/07/11 04:02:14;;;;;;;;;;;;;;;14.28;50.16;96188.13;5043001;28;19973;-64
2022/07/11 04:04:40;;;;;;;;;;;;;;;13.93;50.54;96180.66;5043334;28;20004;-63
2022/07/11 04:07:05;;;;;;;;;;;;;;;14.15;49.80;96175.41;5043338;28;19993;-64
2022/07/11 04:09:31;;;;;;;;;;;;;;;14.07;50.29;96185.19;5043280;28;19972;-63
2022/07/11 04:11:56;;;;;;;;;;;;;;;13.79;50.68;96187.66;5043234;28;20223;-63
2022/07/11 04:14:21;;;;;;;;;;;;;;;13.76;50.00;96182.66;5042782;28;20466;-63
2022/07/11 04:16:47;;;;;;;;;;;;;;;13.61;51.63;96182.69;5041820;28;20015;-63
2022/07/11 04:19:12;;;;;;;;;;;;;;;13.62;51.51;96177.16;5043332;28;20022;-63
2022/07/11 04:21:37;;;;;;;;;;;;;;;13.30;51.93;96184.50;5042769;28;19985;-64
2022/07/11 04:24:02;;;;;;;;;;;;;;;13.44;51.17;96181.00;5042264;28;20188;-64
2022/07/11 04:26:28;;;;;;;;;;;;;;;13.45;50.21;96179.16;5042701;28;20292;-63
2022/07/11 04:28:53;;;;;;;;;;;;;;;13.62;49.03;96185.16;5042634;28;19999;-63
2022/07/11 04:31:18;;;;;;;;;;;;;;;13.72;51.08;96189.41;5042613;28;20011;-63
2022/07/11 04:33:43;;;;;;;;;;;;;;;13.77;50.27;96184.34;5043265;28;20319;-63
2022/07/11 04:36:08;;;;;;;;;;;;;;;13.64;51.76;96193.00;5042326;28;20026;-63
2022/07/11 04:38:34;;;;;;;;;;;;;;;13.69;51.98;96187.94;5042720;28;20079;-64
2022/07/11 04:40:59;;;;;;;;;;;;;;;13.89;49.58;96188.25;5042718;28;20013;-63
2022/07/11 04:43:24;;;;;;;;;;;;;;;14.32;50.25;96181.38;5042028;28;19989;-63
2022/07/11 04:45:49;;;;;;;;;;;;;;;14.22;50.50;96187.03;5042911;28;19993;-63
2022/07/11 04:48:15;;;;;;;;;;;;;;;14.23;49.91;96182.47;5041735;28;20000;-63
2022/07/11 04:50:42;;;;;;;;;;;;;;;13.87;50.93;96179.53;5042281;28;19973;-64
2022/07/11 04:53:07;;;;;;;;;;;;;;;13.85;51.10;96180.75;5040941;28;20369;-64
2022/07/11 04:55:32;;;;;;;;;;;;;;;14.20;50.90;96186.38;5042223;28;20088;-64
2022/07/11 04:57:58;;;;;;;;;;;;;;;14.01;51.30;96191.28;5041337;28;20446;-64
2022/07/11 05:00:23;;;;;;;;;;;;;;;13.94;50.84;96188.53;5040780;28;19997;-63
2022/07/11 05:02:48;;;;;;;;;;;;;;;13.91;51.25;96182.72;5041898;28;19974;-64
2022/07/11 05:05:13;;;;;;;;;;;;;;;13.95;51.38;96198.19;5042137;28;20539;-63
2022/07/11 05:07:39;;;;;;;;;;;;;;;14.16;48.66;96188.59;5041637;28;20010;-63
2022/07/11 05:10:04;;;;;;;;;;;;;;;13.94;50.26;96201.91;5042505;28;20392;-63
2022/07/11 05:12:30;;;;;;;;;;;;;;;13.84;51.77;96196.00;5041184;28;19996;-63
2022/07/11 05:14:55;;;;;;;;;;;;;;;13.97;51.33;96194.53;5041513;28;20438;-63
2022/07/11 05:17:20;;;;;;;;;;;;;;;13.94;51.53;96203.75;5042256;28;20087;-63
2022/07/11 05:19:45;;;;;;;;;;;;;;;13.92;51.72;96201.28;5041629;28;20029;-64
2022/07/11 05:22:11;;;;;;;;;;;;;;;14.12;51.46;96203.38;5041795;28;19997;-64
2022/07/11 05:24:36;;;;;;;;;;;;;;;14.16;50.94;96206.50;5042902;28;20003;-63
2022/07/11 05:27:01;;;;;;;;;;;;;;;14.25;51.08;96209.91;5041510;28;19993;-63
2022/07/11 05:29:27;;;;;;;;;;;;;;;14.06;51.38;96209.47;5041982;28;19976;-63
2022/07/11 05:31:52;;;;;;;;;;;;;;;13.70;52.38;96214.50;5041413;28;20364;-63
2022/07/11 05:34:18;;;;;;;;;;;;;;;13.68;52.14;96213.03;5041600;28;19973;-63
2022/07/11 05:36:43;;;;;;;;;;;;;;;13.75;51.44;96213.97;5041016;28;19984;-64
2022/07/11 05:39:08;;;;;;;;;;;;;;;13.76;52.27;96220.97;5040665;28;20448;-63
2022/07/11 05:41:34;;;;;;;;;;;;;;;14.17;50.90;96224.22;5041495;28;19984;-64
2022/07/11 05:43:59;;;;;;;;;;;;;;;14.38;51.17;96228.00;5040750;28;20007;-63
2022/07/11 05:46:24;;;;;;;;;;;;;;;14.18;50.40;96224.03;5040781;28;20443;-63
2022/07/11 05:48:49;;;;;;;;;;;;;;;14.57;50.46;96222.03;5039544;28;20488;-66
2022/07/11 05:51:16;;;;;;;;;;;;;;;14.64;50.08;96222.13;5041604;28;20569;-63
2022/07/11 05:53:41;;;;;;;;;;;;;;;14.57;50.36;96221.19;5040870;28;19980;-64
2022/07/11 05:56:07;;;;;;;;;;;;;;;14.57;50.65;96219.38;5040063;28;20061;-63
2022/07/11 05:58:32;;;;;;;;;;;;;;;14.44;50.84;96221.88;5041140;28;19976;-64
2022/07/11 06:00:58;;;;;;;;;;;;;;;14.63;50.23;96212.41;5039331;28;20416;-63
2022/07/11 06:03:23;;;;;;;;;;;;;;;14.44;50.57;96225.41;5041270;28;20065;-63
2022/07/11 06:05:49;;;;;;;;;;;;;;;14.53;50.56;96218.09;5036125;28;20080;-65
2022/07/11 06:10:58;;;;;;;;;;;;;;;14.73;50.04;96217.47;5036509;28;19999;-64
2022/07/11 06:13:23;;;;;;;;;;;;;;;14.26;51.08;96217.75;5038125;28;19973;-63
2022/07/11 06:15:49;;;;;;;;;;;;;;;14.20;51.68;96227.38;5037205;28;19987;-64
2022/07/11 06:18:14;;;;;;;;;;;;;;;14.35;51.05;96221.19;5038378;28;20162;-64
2022/07/11 06:20:39;;;;;;;;;;;;;;;14.45;50.69;96223.56;5034543;28;19991;-64
2022/07/11 06:23:05;;;;;;;;;;;;;;;14.01;51.36;96225.25;5036673;28;19997;-63
2022/07/11 06:25:31;;;;;;;;;;;;;;;14.15;51.70;96231.63;5034668;28;20092;-64
2022/07/11 06:27:56;;;;;;;;;;;;;;;13.80;52.04;96226.78;5037847;28;20080;-64
2022/07/11 06:30:22;;;;;;;;;;;;;;;14.07;52.22;96228.03;5037084;28;20075;-64
2022/07/11 06:32:47;;;;;;;;;;;;;;;14.10;50.82;96229.50;5035976;28;20176;-64
2022/07/11 06:35:12;;;;;;;;;;;;;;;14.11;51.77;96231.16;5036280;28;20236;-64
2022/07/11 06:37:37;;;;;;;;;;;;;;;14.60;50.70;96220.84;5037383;28;20445;-63
2022/07/11 06:40:08;;;;;;;;;;;;;;;14.34;50.75;96231.03;5038471;28;20393;-65
2022/07/11 06:42:33;;;;;;;;;;;;;;;14.55;50.03;96220.56;5039790;28;20058;-65
2022/07/11 06:44:58;;;;;;;;;;;;;;;14.76;49.95;96213.59;5039729;28;20065;-64
2022/07/11 06:47:23;;;;;;;;;;;;;;;14.70;49.59;96226.72;5038577;28;20021;-64
2022/07/11 06:49:49;;;;;;;;;;;;;;;14.65;49.97;96226.44;5038990;28;20010;-64
2022/07/11 06:52:14;;;;;;;;;;;;;;;14.56;50.01;96227.59;5037911;28;20098;-64
2022/07/11 06:54:40;;;;;;;;;;;;;;;14.90;49.70;96230.66;5039813;28;20520;-64
2022/07/11 06:57:05;;;;;;;;;;;;;;;15.18;49.21;96221.84;5041362;28;20349;-65
2022/07/11 06:59:30;;;;;;;;;;;;;;;15.42;47.92;96217.91;5039782;28;20042;-78
2022/07/11 07:01:57;;;;;;;;;;;;;;;15.39;47.47;96228.19;5038358;28;20071;-78
2022/07/11 07:04:22;;;;;;;;;;;;;;;15.63;47.09;96226.97;5042296;28;19996;-78
2022/07/11 07:06:48;;;;;;;;;;;;;;;15.75;46.44;96228.09;5037222;28;19969;-78
2022/07/11 07:09:13;;;;;;;;;;;;;;;15.84;47.16;96234.13;5020606;28;20048;-78
2022/07/11 07:11:38;;;;;;;;;;;;;;;15.86;46.76;96239.31;5039159;28;20523;-78
2022/07/11 07:14:03;;;;;;;;;;;;;;;15.82;46.00;96238.88;5037659;28;20001;-78
2022/07/11 07:16:29;;;;;;;;;;;;;;;16.00;45.76;96242.91;5037556;28;20042;-79
2022/07/11 07:18:54;;;;;;;;;;;;;;;16.09;46.18;96243.59;5038906;28;19988;-78
2022/07/11 07:21:20;;;;;;;;;;;;;;;15.90;47.50;96243.25;5038499;28;20188;-79
2022/07/11 07:23:45;;;;;;;;;;;;;;;16.20;45.99;96251.09;5038654;28;20016;-72
2022/07/11 07:26:10;;;;;;;;;;;;;;;15.29;48.53;96248.13;5037534;28;20025;-72
2022/07/11 07:28:37;;;;;;;;;;;;;;;15.42;47.51;96250.13;5038475;28;19986;-73
2022/07/11 07:31:03;;;;;;;;;;;;;;;15.40;48.65;96251.34;5038574;28;20493;-72
2022/07/11 07:33:28;;;;;;;;;;;;;;;15.41;48.54;96251.16;5038628;28;20416;-73
2022/07/11 07:35:54;;;;;;;;;;;;;;;15.55;47.87;96248.56;5039505;28;19993;-73
2022/07/11 07:38:19;;;;;;;;;;;;;;;15.44;47.52;96253.41;5038040;28;20799;-72
2022/07/11 07:40:44;;;;;;;;;;;;;;;15.19;48.76;96250.31;5040061;28;20040;-73
2022/07/11 07:43:10;;;;;;;;;;;;;;;15.33;48.45;96267.38;5037359;28;20022;-72
2022/07/11 07:45:35;;;;;;;;;;;;;;;15.11;48.76;96259.31;5040048;28;20476;-72
2022/07/11 07:48:00;;;;;;;;;;;;;;;15.20;48.48;96266.22;5038281;28;20421;-72
2022/07/11 07:50:25;;;;;;;;;;;;;;;15.09;48.23;96256.00;5040084;28;19981;-72
2022/07/11 07:52:51;;;;;;;;;;;;;;;14.82;49.14;96266.47;5036351;28;20032;-72
2022/07/11 07:55:16;;;;;;;;;;;;;;;15.16;49.56;96259.56;5039267;28;20370;-72
2022/07/11 07:57:41;;;;;;;;;;;;;;;15.66;47.96;96252.59;5039349;28;20076;-72
2022/07/11 08:02:50;;;;;;;;;;;;;;;16.10;46.00;96245.22;5038436;28;20100;-72
2022/07/11 08:05:16;;;;;;;;;;;;;;;16.40;46.07;96253.06;5037850;28;19995;-72
2022/07/11 08:07:41;;;;;;;;;;;;;;;16.44;45.74;96259.69;5037073;28;20449;-72
2022/07/11 08:10:07;;;;;;;;;;;;;;;16.50;45.34;96260.75;5038999;28;19979;-72
2022/07/11 08:12:32;;;;;;;;;;;;;;;16.72;45.57;96255.22;5038254;28;19992;-72
2022/07/11 08:14:57;;;;;;;;;;;;;;;16.68;43.78;96268.25;5037178;28;20066;-71
2022/07/11 08:17:22;;;;;;;;;;;;;;;16.38;44.90;96265.84;5037415;28;20004;-72
2022/07/11 08:19:48;;;;;;;;;;;;;;;16.52;44.94;96267.59;5037878;28;20022;-72
2022/07/11 08:22:13;;;;;;;;;;;;;;;16.64;44.29;96267.00;5037694;28;20038;-72
2022/07/11 08:24:38;;;;;;;;;;;;;;;17.06;42.89;96269.59;5038159;28;20000;-72
2022/07/11 08:27:04;;;;;;;;;;;;;;;17.11;42.93;96267.19;5036052;28;19998;-72
2022/07/11 08:29:29;;;;;;;;;;;;;;;17.29;42.67;96265.75;5038771;28;20020;-71
2022/07/11 08:31:54;;;;;;;;;;;;;;;17.41;42.51;96265.97;5038994;28;20017;-71
2022/07/11 08:34:19;;;;;;;;;;;;;;;16.92;42.79;96268.75;5038831;28;20535;-72
2022/07/11 08:36:44;;;;;;;;;;;;;;;16.81;43.39;96272.88;5037541;28;19992;-72
2022/07/11 08:39:10;;;;;;;;;;;;;;;17.19;43.26;96266.16;5038088;28;20002;-72
2022/07/11 08:41:36;;;;;;;;;;;;;;;17.36;42.47;96265.75;5037173;28;20118;-72
2022/07/11 08:44:02;;;;;;;;;;;;;;;17.70;42.73;96265.75;5034504;28;19993;-72
2022/07/11 08:46:27;;;;;;;;;;;;;;;17.56;43.24;96267.63;5037841;28;20027;-72
2022/07/11 08:48:53;;;;;;;;;;;;;;;17.18;43.31;96274.41;5037066;28;20095;-72
2022/07/11 08:51:20;;;;;;;;;;;;;;;17.18;43.15;96272.56;5035000;28;19987;-72
2022/07/11 08:53:45;;;;;;;;;;;;;;;17.18;43.12;96259.13;5037981;28;19965;-72
2022/07/11 08:56:14;;;;;;;;;;;;;;;17.19;44.05;96265.31;5033772;28;20441;-72
2022/07/11 08:58:40;;;;;;;;;;;;;;;17.47;42.27;96258.94;5035241;28;20000;-72
2022/07/11 09:01:05;;;;;;;;;;;;;;;17.45;42.32;96261.84;5036175;28;20517;-72
2022/07/11 09:03:31;;;;;;;;;;;;;;;17.40;42.54;96267.00;5036657;28;20039;-72
2022/07/11 09:05:56;;;;;;;;;;;;;;;17.23;42.15;96259.31;5036490;28;19987;-71
2022/07/11 09:08:21;;;;;;;;;;;;;;;17.70;41.05;96261.19;5033397;28;20428;-72
2022/07/11 09:10:46;;;;;;;;;;;;;;;17.95;41.13;96262.44;5036697;28;20460;-72
2022/07/11 09:13:12;;;;;;;;;;;;;;;17.97;40.92;96260.38;5037947;28;20079;-73
2022/07/11 09:15:38;;;;;;;;;;;;;;;17.54;41.50;96270.50;5036067;28;20500;-71
2022/07/11 09:18:03;;;;;;;;;;;;;;;17.75;41.76;96264.09;5038315;28;20652;-74
2022/07/11 09:25:19;;;;;;;;;;;;;;;17.95;41.74;96263.25;5035618;28;19996;-74
2022/07/11 09:26:05;;;;;;;;;;;;;;;18.40;40.32;96259.03;5035590;28;20077;-74
2022/07/11 09:28:31;;;;;;;;;;;;;;;18.39;40.15;96260.06;5037656;28;20515;-74
2022/07/11 09:30:56;;;;;;;;;;;;;;;17.95;40.90;96265.16;5036417;28;19996;-74
2022/07/11 09:33:21;;;;;;;;;;;;;;;17.79;41.58;96259.94;5037444;28;20023;-74
2022/07/11 09:35:47;;;;;;;;;;;;;;;17.92;40.93;96267.22;5037222;28;20372;-74
2022/07/11 09:38:12;;;;;;;;;;;;;;;18.10;41.05;96267.59;5036907;28;20010;-74
2022/07/11 09:40:38;;;;;;;;;;;;;;;18.01;41.09;96265.13;5037421;28;19998;-73
2022/07/11 09:43:03;;;;;;;;;;;;;;;18.09;40.95;96268.63;5037129;28;20193;-74
2022/07/11 09:45:29;;;;;;;;;;;;;;;19.04;39.37;96271.84;5039030;28;20038;-73
2022/07/11 09:47:56;;;;;;;;;;;;;;;19.11;39.98;96269.94;5032611;28;19980;-73
2022/07/11 09:50:21;;;;;;;;;;;;;;;19.70;36.77;96258.09;5040164;28;19964;-73
2022/07/11 09:52:59;;;;;;;;;;;;;;;19.12;38.66;96271.56;5035120;28;19983;-73
2022/07/11 09:55:27;;;;;;;;;;;;;;;19.51;39.30;96270.72;5037028;28;19980;-73
2022/07/11 09:57:52;;;;;;;;;;;;;;;19.01;39.10;96266.88;5033464;28;19970;-72
2022/07/11 10:00:18;;;;;;;;;;;;;;;18.95;39.18;96277.50;5036234;28;19988;-71
2022/07/11 10:02:43;;;;;;;;;;;;;;;18.84;39.80;96275.47;5037786;28;19971;-72
2022/07/11 10:05:08;;;;;;;;;;;;;;;18.60;40.00;96266.22;5039939;28;20085;-73
2022/07/11 10:07:34;;;;;;;;;;;;;;;18.80;39.55;96266.97;5039920;28;20357;-72
2022/07/11 10:09:59;;;;;;;;;;;;;;;19.24;39.09;96270.88;5035550;28;20030;-73
2022/07/11 10:12:25;;;;;;;;;;;;;;;19.56;36.74;96263.63;5034239;28;19992;-73
2022/07/11 10:14:50;;;;;;;;;;;;;;;19.77;37.04;96260.72;5038673;28;19971;-73
2022/07/11 10:17:18;;;;;;;;;;;;;;;19.49;37.68;96257.44;5040445;28;20420;-73
2022/07/11 10:19:49;;;;;;;;;;;;;;;18.97;39.85;96269.19;5038576;28;20083;-73
2022/07/11 10:22:20;;;;;;;;;;;;;;;19.21;38.41;96262.16;5023221;28;20036;-73
2022/07/11 10:24:48;;;;;;;;;;;;;;;18.51;40.55;96273.69;5039867;28;20161;-69
2022/07/11 10:27:21;;;;;;;;;;;;;;;18.90;39.95;96268.38;5038958;28;19986;-73
2022/07/11 10:29:50;;;;;;;;;;;;;;;18.72;38.86;96278.00;5040870;28;19970;-72
2022/07/11 10:32:16;;;;;;;;;;;;;;;18.43;40.15;96282.88;5039731;28;19994;-73
2022/07/11 10:34:41;;;;;;;;;;;;;;;18.36;39.67;96277.47;5040102;28;20380;-72
2022/07/11 10:37:07;;;;;;;;;;;;;;;18.25;40.85;96278.97;5040502;28;20010;-73
2022/07/11 10:39:34;;;;;;;;;;;;;;;17.86;41.93;96278.84;5039070;28;20457;-72
2022/07/11 10:42:00;;;;;;;;;;;;;;;17.99;42.09;96275.31;5040572;28;19973;-72
2022/07/11 10:44:26;;;;;;;;;;;;;;;18.09;41.21;96276.72;5038119;28;19998;-72
2022/07/11 10:46:53;;;;;;;;;;;;;;;18.27;42.07;96281.44;5036226;28;19974;-73
2022/07/11 10:49:38;;;;;;;;;;;;;;;17.76;42.14;96283.78;5041082;28;20307;-73
2022/07/11 10:52:06;;;;;;;;;;;;;;;17.62;42.52;96280.25;5038542;28;20004;-72
2022/07/11 10:54:51;;;;;;;;;;;;;;;17.49;43.63;96273.84;5039420;28;19971;-73
2022/07/11 10:57:31;;;;;;;;;;;;;;;17.02;43.39;96288.03;5037892;28;20453;-72
2022/07/11 10:59:57;;;;;;;;;;;;;;;16.89;44.05;96290.66;5036042;28;19988;-72
2022/07/11 11:02:23;;;;;;;;;;;;;;;17.06;44.19;96287.63;5040354;28;19978;-72
2022/07/11 11:04:58;;;;;;;;;;;;;;;17.37;42.90;96288.94;5040436;28;20369;-71
2022/07/11 11:07:42;;;;;;;;;;;;;;;17.62;42.46;96291.03;5038187;28;20001;-72
2022/07/11 11:10:26;;;;;;;;;;;;;;;18.11;41.62;96291.63;5036713;28;20419;-72
2022/07/11 11:13:07;;;;;;;;;;;;;;;18.63;40.66;96304.38;5039071;28;20006;-72
2022/07/11 11:15:42;;;;;;;;;;;;;;;18.97;39.41;96289.94;5040339;28;20031;-73
2022/07/11 11:18:26;;;;;;;;;;;;;;;19.07;40.11;96304.59;5037488;28;20054;-72
2022/07/11 11:20:57;;;;;;;;;;;;;;;19.04;40.12;96302.31;5036753;28;20350;-72
2022/07/11 11:23:22;;;;;;;;;;;;;;;18.61;40.79;96306.47;5038214;28;19991;-72
2022/07/11 11:25:49;;;;;;;;;;;;;;;18.67;40.84;96302.09;5036325;28;19995;-72
2022/07/11 11:28:18;;;;;;;;;;;;;;;19.07;39.71;96304.59;5037289;28;20054;-72
2022/07/11 11:30:52;;;;;;;;;;;;;;;18.90;40.06;96311.53;5038193;28;20409;-72
2022/07/11 11:33:17;;;;;;;;;;;;;;;18.36;41.21;96309.00;5037518;28;20079;-72
2022/07/11 11:35:42;;;;;;;;;;;;;;;17.54;43.21;96308.19;5038752;28;20125;-71
2022/07/11 11:38:07;;;;;;;;;;;;;;;16.98;43.74;96310.97;5037483;28;19980;-71
2022/07/11 11:40:33;;;;;;;;;;;;;;;16.75;44.80;96309.44;5035541;28;20450;-72
2022/07/11 11:42:58;;;;;;;;;;;;;;;16.61;45.35;96313.09;5036752;28;20631;-71
2022/07/11 11:45:23;;;;;;;;;;;;;;;16.71;45.07;96308.19;5040043;28;20473;-71
2022/07/11 11:47:51;;;;;;;;;;;;;;;16.95;44.94;96311.38;5039214;28;19989;-72
2022/07/11 11:50:16;;;;;;;;;;;;;;;17.44;43.41;96307.78;5039086;28;19969;-71
2022/07/11 11:52:42;;;;;;;;;;;;;;;17.56;43.30;96302.59;5037016;28;20401;-71
2022/07/11 11:55:09;;;;;;;;;;;;;;;17.83;43.75;96300.75;5038076;28;19990;-72
2022/07/11 11:57:34;;;;;;;;;;;;;;;18.29;41.23;96309.84;5034437;28;20237;-72
2022/07/11 11:59:59;;;;;;;;;;;;;;;18.91;41.07;96305.94;5036940;28;20269;-72
2022/07/11 12:02:25;;;;;;;;;;;;;;;19.24;39.70;96304.06;5038704;28;20109;-71
2022/07/11 12:04:51;;;;;;;;;;;;;;;19.39;40.63;96308.38;5036827;28;20203;-73
2022/07/11 12:07:27;;;;;;;;;;;;;;;19.78;38.40;96303.72;5039278;28;20665;-72
2022/07/11 12:09:55;;;;;;;;;;;;;;;19.49;38.81;96303.34;5037904;28;20004;-72
2022/07/11 12:12:52;;;;;;;;;;;;;;;19.52;37.74;96302.91;5041658;28;20018;-72
2022/07/11 12:15:26;;;;;;;;;;;;;;;19.40;38.61;96310.03;5037917;28;20000;-72
2022/07/11 12:17:52;;;;;;;;;;;;;;;18.92;39.32;96317.53;5037147;28;20417;-72
2022/07/11 12:20:32;;;;;;;;;;;;;;;18.35;41.17;96312.75;5037403;28;20372;-72
2022/07/11 12:22:57;;;;;;;;;;;;;;;18.74;40.27;96311.00;5036546;28;19992;-72
2022/07/11 12:25:23;;;;;;;;;;;;;;;18.90;41.02;96308.84;5040355;28;20323;-72
2022/07/11 12:27:48;;;;;;;;;;;;;;;18.46;41.61;96306.69;5034847;28;20002;-72
2022/07/11 12:30:23;;;;;;;;;;;;;;;18.65;40.85;96307.69;5037098;28;20066;-72
2022/07/11 12:33:03;;;;;;;;;;;;;;;18.35;41.61;96307.34;5037613;28;20534;-73
2022/07/11 12:35:29;;;;;;;;;;;;;;;18.80;40.34;96303.91;5036131;28;19989;-72
2022/07/11 12:37:54;;;;;;;;;;;;;;;19.03;40.65;96300.66;5034664;28;20677;-72
2022/07/11 12:40:19;;;;;;;;;;;;;;;19.55;38.95;96302.44;5038859;28;20008;-73
2022/07/11 12:42:46;;;;;;;;;;;;;;;19.58;38.95;96296.59;5035766;28;20473;-73
2022/07/11 12:45:11;;;;;;;;;;;;;;;19.83;38.01;96290.41;5036383;28;20014;-73
2022/07/11 12:47:46;;;;;;;;;;;;;;;19.51;38.46;96293.13;5038820;28;19994;-72
2022/07/11 12:50:15;;;;;;;;;;;;;;;19.08;38.89;96295.44;5039014;28;20507;-73
2022/07/11 12:52:41;;;;;;;;;;;;;;;18.79;39.42;96294.97;5037996;28;20024;-73
2022/07/11 12:55:07;;;;;;;;;;;;;;;18.13;41.00;96296.81;5038062;28;20478;-72
2022/07/11 12:57:32;;;;;;;;;;;;;;;18.90;40.21;96295.34;5036912;28;19975;-72